Time;durP1;ratioP1;P1;durP2;ratioP2;P2;SDS_P1;SDS_P2;PMS_P1;PMS_P2;Temp;Humidity;BMP_temperature;BMP_pressure;BME280_temperature;BME280_humidity;BME280_pressure;Samples;Min_cycle;Max_cycle;Signal;HPM_P1;HPM_P2
2021/10/07 00:00:09;;;;;;;2.30;1.50;;;10.10;79.20;;;;;;5095108;28;20274;-64
2021/10/07 00:02:36;;;;;;;2.80;1.23;;;10.20;78.90;;;;;;5093082;28;20192;-64
2021/10/07 00:05:05;;;;;;;2.20;1.30;;;10.20;78.70;;;;;;5108724;28;20212;-64
2021/10/07 00:07:49;;;;;;;2.60;1.30;;;10.10;78.20;;;;;;5113006;28;20275;-66
2021/10/07 00:10:18;;;;;;;2.60;1.10;;;10.10;78.30;;;;;;5094960;28;20648;-63
2021/10/07 00:12:45;;;;;;;1.98;1.30;;;10.10;78.30;;;;;;5092525;28;20253;-64
2021/10/07 00:15:12;;;;;;;3.03;1.08;;;10.00;78.70;;;;;;5108699;28;20595;-64
2021/10/07 00:17:40;;;;;;;2.47;1.20;;;9.90;79.90;;;;;;5112967;28;20188;-64
2021/10/07 00:20:12;;;;;;;1.80;1.02;;;10.00;79.20;;;;;;5096848;28;20559;-65
2021/10/07 00:22:40;;;;;;;3.08;1.13;;;10.00;79.30;;;;;;5092503;28;20188;-64
2021/10/07 00:25:09;;;;;;;4.68;1.70;;;10.10;79.30;;;;;;5106762;28;20184;-64
2021/10/07 00:27:38;;;;;;;2.35;1.17;;;10.10;79.40;;;;;;5112809;28;20191;-64
2021/10/07 00:30:11;;;;;;;4.03;1.45;;;10.10;79.90;;;;;;5092929;28;20267;-64
2021/10/07 00:32:43;;;;;;;2.28;1.15;;;10.10;80.10;;;;;;5092317;28;20628;-64
2021/10/07 00:40:36;;;;;;;2.42;1.50;;;10.10;80.30;;;;;;5092495;28;20208;-64
2021/10/07 00:43:04;;;;;;;2.67;1.80;;;10.10;80.40;;;;;;5092216;28;20242;-65
2021/10/07 00:45:31;;;;;;;2.33;1.45;;;10.10;80.30;;;;;;5112673;28;20195;-64
2021/10/07 00:47:58;;;;;;;2.40;1.50;;;10.10;80.80;;;;;;5112523;28;20188;-64
2021/10/07 00:50:26;;;;;;;2.20;1.60;;;10.10;80.90;;;;;;5096387;28;20220;-64
2021/10/07 00:52:53;;;;;;;3.33;1.30;;;10.10;80.70;;;;;;5095465;28;20189;-64
2021/10/07 00:55:20;;;;;;;1.90;1.30;;;10.10;80.80;;;;;;5114774;28;20192;-64
2021/10/07 00:57:47;;;;;;;2.50;1.73;;;10.10;80.80;;;;;;5116581;28;20238;-64
2021/10/07 01:00:16;;;;;;;3.80;1.48;;;10.10;80.80;;;;;;5098427;28;20219;-63
2021/10/07 01:02:43;;;;;;;2.50;1.50;;;10.10;81.10;;;;;;5096282;28;20193;-64
2021/10/07 01:05:10;;;;;;;2.53;1.80;;;10.10;81.50;;;;;;5111675;28;20188;-64
2021/10/07 01:07:38;;;;;;;3.10;1.70;;;10.10;81.60;;;;;;5116256;28;20196;-64
2021/10/07 01:10:06;;;;;;;2.97;1.50;;;10.10;80.90;;;;;;5101199;28;20209;-64
2021/10/07 01:12:33;;;;;;;4.20;1.30;;;10.10;81.10;;;;;;5096124;28;20246;-64
2021/10/07 01:15:02;;;;;;;3.22;1.70;;;10.10;81.30;;;;;;5107768;28;20192;-64
2021/10/07 01:17:32;;;;;;;2.33;1.45;;;10.10;81.20;;;;;;5116090;28;20181;-64
2021/10/07 01:20:06;;;;;;;2.55;1.42;;;10.10;81.10;;;;;;5104331;28;20220;-64
2021/10/07 01:22:41;;;;;;;2.08;1.10;;;10.10;81.30;;;;;;5108143;28;20240;-66
2021/10/07 01:25:17;;;;;;;3.60;1.55;;;10.20;81.30;;;;;;5109171;28;20268;-65
2021/10/07 01:27:54;;;;;;;4.13;1.38;;;10.20;81.80;;;;;;5112773;28;20267;-64
2021/10/07 01:30:21;;;;;;;4.97;1.95;;;10.20;82.10;;;;;;5115904;28;20283;-64
2021/10/07 01:32:48;;;;;;;1.90;1.20;;;10.20;82.20;;;;;;5114787;28;20192;-64
2021/10/07 01:35:17;;;;;;;2.90;1.33;;;10.20;82.70;;;;;;5115758;28;20193;-64
2021/10/07 01:37:45;;;;;;;3.45;1.65;;;10.20;82.70;;;;;;5105333;28;20181;-64
2021/10/07 01:40:15;;;;;;;2.72;1.38;;;10.20;82.90;;;;;;5095323;28;20231;-64
2021/10/07 01:42:43;;;;;;;4.82;1.58;;;10.20;82.60;;;;;;5103933;28;20207;-65
2021/10/07 01:45:11;;;;;;;2.75;1.20;;;10.20;82.50;;;;;;5115615;28;20283;-64
2021/10/07 01:47:38;;;;;;;3.08;1.20;;;10.20;82.50;;;;;;5106755;28;20242;-64
2021/10/07 01:50:08;;;;;;;1.90;1.20;;;10.20;82.80;;;;;;5095108;28;20193;-64
2021/10/07 01:52:37;;;;;;;2.42;1.40;;;10.20;83.00;;;;;;5105782;28;20215;-64
2021/10/07 01:55:05;;;;;;;2.75;1.60;;;10.20;83.40;;;;;;5115460;28;20192;-64
2021/10/07 01:57:38;;;;;;;3.05;1.15;;;10.30;83.50;;;;;;5105697;28;20370;-64
2021/10/07 02:00:10;;;;;;;2.90;1.38;;;10.30;83.90;;;;;;5094867;28;20244;-64
2021/10/07 02:02:45;;;;;;;6.10;1.30;;;10.30;83.80;;;;;;5106542;28;20662;-64
2021/10/07 02:05:33;;;;;;;2.25;1.40;;;10.30;83.60;;;;;;5117101;28;20195;-64
2021/10/07 02:08:02;;;;;;;2.95;1.52;;;10.30;83.40;;;;;;5102041;28;20201;-64
2021/10/07 02:10:29;;;;;;;2.25;1.05;;;10.20;82.80;;;;;;5094214;28;20193;-63
2021/10/07 02:12:56;;;;;;;3.40;1.23;;;10.20;82.60;;;;;;5106037;28;20188;-63
2021/10/07 02:15:24;;;;;;;1.92;1.20;;;10.20;83.20;;;;;;5114708;28;20190;-64
2021/10/07 02:17:51;;;;;;;3.83;1.38;;;10.20;83.00;;;;;;5113151;28;20185;-63
2021/10/07 02:20:18;;;;;;;3.78;1.40;;;10.30;82.80;;;;;;5115049;28;20289;-64
2021/10/07 02:22:45;;;;;;;1.80;1.10;;;10.30;83.00;;;;;;5105563;28;20185;-64
2021/10/07 02:25:14;;;;;;;2.20;1.10;;;10.30;82.90;;;;;;5094470;28;20193;-63
2021/10/07 02:27:41;;;;;;;1.90;1.20;;;10.30;83.10;;;;;;5101698;28;20192;-64
2021/10/07 02:30:11;;;;;;;2.65;1.25;;;10.30;83.50;;;;;;5114963;28;20192;-64
2021/10/07 02:32:38;;;;;;;1.70;1.00;;;10.40;83.80;;;;;;5108065;28;20193;-64
2021/10/07 02:35:06;;;;;;;2.95;1.15;;;10.40;83.90;;;;;;5094415;28;20284;-64
2021/10/07 02:37:34;;;;;;;2.20;1.23;;;10.40;83.90;;;;;;5098941;28;20662;-64
2021/10/07 02:40:02;;;;;;;3.42;1.38;;;10.40;83.50;;;;;;5114781;28;20223;-64
2021/10/07 02:42:39;;;;;;;4.72;1.48;;;10.40;83.80;;;;;;5111318;28;20503;-63
2021/10/07 02:45:15;;;;;;;2.65;1.30;;;10.40;84.20;;;;;;5096392;28;20632;-64
2021/10/07 02:47:42;;;;;;;2.17;1.25;;;10.40;84.30;;;;;;5098130;28;20184;-65
2021/10/07 02:50:11;;;;;;;4.05;1.20;;;10.40;84.00;;;;;;5114123;28;20233;-64
2021/10/07 02:52:38;;;;;;;1.83;1.15;;;10.40;84.60;;;;;;5110162;28;20209;-64
2021/10/07 02:55:07;;;;;;;2.83;1.30;;;10.50;83.90;;;;;;5094223;28;20189;-63
2021/10/07 02:57:35;;;;;;;2.70;1.58;;;10.50;83.80;;;;;;5095585;28;20196;-65
2021/10/07 03:00:04;;;;;;;2.40;1.63;;;10.50;83.80;;;;;;5114086;28;20574;-65
2021/10/07 03:02:31;;;;;;;3.10;1.63;;;10.50;83.90;;;;;;5112695;28;20727;-65
2021/10/07 03:04:58;;;;;;;4.47;1.40;;;10.50;84.20;;;;;;5093590;28;20250;-64
2021/10/07 03:07:25;;;;;;;2.35;1.42;;;10.50;83.90;;;;;;5093725;28;20189;-63
2021/10/07 03:09:52;;;;;;;4.60;1.33;;;10.50;84.10;;;;;;5113638;28;20192;-63
2021/10/07 03:12:19;;;;;;;2.50;1.58;;;10.60;84.30;;;;;;5113108;28;20192;-63
2021/10/07 03:14:48;;;;;;;2.50;1.45;;;10.60;84.20;;;;;;5093939;28;20242;-63
2021/10/07 03:17:16;;;;;;;7.88;2.08;;;10.60;84.30;;;;;;5093530;28;20553;-63
2021/10/07 03:19:44;;;;;;;2.50;1.42;;;10.50;83.90;;;;;;5110801;28;20348;-63
2021/10/07 03:22:13;;;;;;;2.60;1.35;;;10.50;84.20;;;;;;5114034;28;20196;-64
2021/10/07 03:24:40;;;;;;;2.28;1.40;;;10.50;84.60;;;;;;5096999;28;20189;-64
2021/10/07 03:27:07;;;;;;;2.50;1.30;;;10.50;84.80;;;;;;5093097;28;20253;-64
2021/10/07 03:29:35;;;;;;;4.57;1.38;;;10.60;85.10;;;;;;5107866;28;20689;-65
2021/10/07 03:32:04;;;;;;;3.55;1.70;;;10.60;85.40;;;;;;5113566;28;20222;-64
2021/10/07 03:34:31;;;;;;;4.57;2.10;;;10.60;85.60;;;;;;5099421;28;20185;-64
2021/10/07 03:36:59;;;;;;;1.95;1.38;;;10.60;85.90;;;;;;5093256;28;20189;-64
2021/10/07 03:39:26;;;;;;;1.95;1.17;;;10.60;85.90;;;;;;5105090;28;20272;-65
2021/10/07 03:41:53;;;;;;;2.10;1.30;;;10.60;85.50;;;;;;5112599;28;20272;-64
2021/10/07 03:44:20;;;;;;;1.90;1.10;;;10.60;85.40;;;;;;5102004;28;20193;-63
2021/10/07 03:46:47;;;;;;;3.60;1.30;;;10.60;85.30;;;;;;5092911;28;20193;-64
2021/10/07 03:49:16;;;;;;;2.78;1.17;;;10.60;85.80;;;;;;5102001;28;20573;-64
2021/10/07 03:51:43;;;;;;;2.40;1.35;;;10.70;86.30;;;;;;5113286;28;20224;-64
2021/10/07 03:54:10;;;;;;;2.17;1.20;;;10.60;86.40;;;;;;5098768;28;20623;-64
2021/10/07 03:56:39;;;;;;;2.17;1.02;;;10.70;86.70;;;;;;5092984;28;20201;-64
2021/10/07 03:59:07;;;;;;;2.28;1.00;;;10.70;85.50;;;;;;5104858;28;20188;-63
2021/10/07 04:01:37;;;;;;;2.15;1.00;;;10.70;85.50;;;;;;5102723;28;20205;-65
2021/10/07 04:04:05;;;;;;;2.50;1.05;;;10.70;85.30;;;;;;5093173;28;20234;-63
2021/10/07 04:06:33;;;;;;;1.98;1.20;;;10.70;85.10;;;;;;5101530;28;20242;-64
2021/10/07 04:09:00;;;;;;;2.70;1.15;;;10.70;85.00;;;;;;5113222;28;20651;-64
2021/10/07 04:11:28;;;;;;;2.35;1.58;;;10.60;85.00;;;;;;5104744;28;20238;-63
2021/10/07 04:13:54;;;;;;;2.53;1.40;;;10.50;85.50;;;;;;5092750;28;20189;-64
2021/10/07 04:16:22;;;;;;;4.15;1.10;;;10.50;85.80;;;;;;5099273;28;20536;-64
2021/10/07 04:18:49;;;;;;;3.42;1.45;;;10.60;86.10;;;;;;5112247;28;20192;-64
2021/10/07 04:21:17;;;;;;;4.03;1.73;;;10.60;86.10;;;;;;5106929;28;20682;-63
2021/10/07 04:23:46;;;;;;;2.90;2.00;;;10.60;86.50;;;;;;5092315;28;20296;-65
2021/10/07 04:26:14;;;;;;;4.05;2.38;;;10.60;86.60;;;;;;5096484;28;20177;-64
2021/10/07 04:28:41;;;;;;;4.75;2.33;;;10.60;86.10;;;;;;5110788;28;20188;-63
2021/10/07 04:31:08;;;;;;;2.47;1.80;;;10.60;86.60;;;;;;5092641;28;20596;-64
2021/10/07 04:33:36;;;;;;;5.85;1.85;;;10.60;86.90;;;;;;5092864;28;20192;-64
2021/10/07 04:36:03;;;;;;;2.58;1.23;;;10.50;86.50;;;;;;5113010;28;20199;-64
2021/10/07 04:38:30;;;;;;;9.48;3.30;;;10.60;86.40;;;;;;5113057;28;20196;-64
2021/10/07 04:40:59;;;;;;;12.95;6.72;;;10.60;86.40;;;;;;5092536;28;20208;-64
2021/10/07 04:43:26;;;;;;;20.10;7.93;;;10.60;86.70;;;;;;5092533;28;20633;-64
2021/10/07 04:45:53;;;;;;;10.73;6.35;;;10.50;86.70;;;;;;5110607;28;20253;-63
2021/10/07 04:48:20;;;;;;;10.32;6.53;;;10.60;86.90;;;;;;5112890;28;20188;-64
2021/10/07 04:50:48;;;;;;;9.82;5.28;;;10.60;86.80;;;;;;5095173;28;20260;-63
2021/10/07 04:53:15;;;;;;;6.53;3.47;;;10.60;86.80;;;;;;5092650;28;20193;-64
2021/10/07 04:55:42;;;;;;;11.15;6.68;;;10.70;86.80;;;;;;5110831;28;20188;-64
2021/10/07 04:58:11;;;;;;;8.80;5.80;;;10.70;86.90;;;;;;5112988;28;20196;-64
2021/10/07 05:00:38;;;;;;;20.20;10.57;;;10.70;86.70;;;;;;5093242;28;20248;-63
2021/10/07 05:03:05;;;;;;;13.88;8.90;;;10.70;86.60;;;;;;5102852;28;20245;-65
2021/10/07 05:05:32;;;;;;;5.63;3.05;;;10.70;87.10;;;;;;5110593;28;20653;-64
2021/10/07 05:07:59;;;;;;;3.00;2.03;;;10.80;87.50;;;;;;5092708;28;20551;-64
2021/10/07 05:10:29;;;;;;;3.70;2.00;;;10.80;87.50;;;;;;5101641;28;20234;-64
2021/10/07 05:12:57;;;;;;;2.47;1.90;;;10.80;87.90;;;;;;5094673;28;20196;-65
2021/10/07 05:15:26;;;;;;;10.30;2.25;;;10.80;87.90;;;;;;5091326;28;20177;-64
2021/10/07 05:17:53;;;;;;;4.85;2.22;;;10.90;87.70;;;;;;5092092;28;20223;-64
2021/10/07 05:20:20;;;;;;;5.60;2.30;;;10.90;87.40;;;;;;5097310;28;20285;-65
2021/10/07 05:22:47;;;;;;;5.85;1.80;;;10.90;87.40;;;;;;5091890;28;20242;-65
2021/10/07 05:25:14;;;;;;;3.83;1.65;;;10.90;88.10;;;;;;5091747;28;20238;-64
2021/10/07 05:27:42;;;;;;;3.65;1.60;;;10.90;88.50;;;;;;5091523;28;20721;-64
2021/10/07 05:30:10;;;;;;;3.20;1.55;;;10.90;88.70;;;;;;5091960;28;20286;-64
2021/10/07 05:32:38;;;;;;;7.22;2.10;;;10.90;88.80;;;;;;5091492;28;20268;-64
2021/10/07 05:35:08;;;;;;;7.63;2.10;;;10.90;88.50;;;;;;5102176;28;20192;-65
2021/10/07 05:37:35;;;;;;;2.55;1.45;;;10.90;88.70;;;;;;5113229;28;20192;-64
2021/10/07 05:40:02;;;;;;;2.90;1.63;;;10.90;88.80;;;;;;5111709;28;20751;-65
2021/10/07 05:42:29;;;;;;;3.28;1.40;;;10.90;88.70;;;;;;5113653;28;20192;-64
2021/10/07 05:45:01;;;;;;;2.17;1.30;;;10.90;88.70;;;;;;5112239;28;20203;-64
2021/10/07 05:47:29;;;;;;;2.10;1.60;;;11.00;88.80;;;;;;5098272;28;20185;-65
2021/10/07 05:49:58;;;;;;;2.65;1.38;;;10.90;88.90;;;;;;5112090;28;20188;-64
2021/10/07 05:52:25;;;;;;;3.33;2.00;;;10.90;89.30;;;;;;5111327;28;20231;-64
2021/10/07 05:54:54;;;;;;;3.55;1.60;;;10.90;89.40;;;;;;5112359;28;20242;-64
2021/10/07 05:57:22;;;;;;;5.55;1.42;;;10.90;89.60;;;;;;5112422;28;20518;-64
2021/10/07 05:59:49;;;;;;;8.38;2.15;;;10.90;89.80;;;;;;5111716;28;20554;-63
2021/10/07 06:02:16;;;;;;;4.82;1.60;;;11.00;90.10;;;;;;5113190;28;20251;-64
2021/10/07 06:04:44;;;;;;;7.88;2.05;;;11.00;90.20;;;;;;5111426;28;20271;-63
2021/10/07 06:07:13;;;;;;;2.63;1.80;;;11.00;90.00;;;;;;5095155;28;20258;-64
2021/10/07 06:09:43;;;;;;;2.28;1.70;;;11.00;89.70;;;;;;5094894;28;20616;-64
2021/10/07 06:12:16;;;;;;;2.75;1.80;;;11.00;89.80;;;;;;5094877;28;20189;-64
2021/10/07 06:14:45;;;;;;;4.80;1.50;;;11.00;89.90;;;;;;5094691;28;20640;-64
2021/10/07 06:17:14;;;;;;;2.85;2.20;;;11.00;89.80;;;;;;5094566;28;20200;-64
2021/10/07 06:19:44;;;;;;;2.50;1.50;;;11.00;89.80;;;;;;5093949;28;20574;-64
2021/10/07 06:22:12;;;;;;;3.03;1.45;;;11.10;89.90;;;;;;5111624;28;20558;-64
2021/10/07 06:24:39;;;;;;;2.85;1.83;;;11.10;89.80;;;;;;5113118;28;20184;-64
2021/10/07 06:27:07;;;;;;;2.88;1.73;;;11.10;89.60;;;;;;5103730;28;20231;-64
2021/10/07 06:29:34;;;;;;;5.72;2.50;;;11.10;89.60;;;;;;5094472;28;20229;-65
2021/10/07 06:32:01;;;;;;;2.50;1.58;;;11.20;89.90;;;;;;5095764;28;20712;-64
2021/10/07 06:34:41;;;;;;;7.88;2.33;;;11.20;89.80;;;;;;5090923;28;20184;-68
2021/10/07 06:37:14;;;;;;;3.30;1.83;;;11.20;89.50;;;;;;5098923;28;20192;-64
2021/10/07 06:39:47;;;;;;;2.67;1.63;;;11.20;89.40;;;;;;5094128;28;22246;-64
2021/10/07 06:42:14;;;;;;;4.13;2.83;;;11.30;89.10;;;;;;5092597;28;20199;-65
2021/10/07 06:44:41;;;;;;;4.85;3.53;;;11.30;88.80;;;;;;5096308;28;20272;-65
2021/10/07 06:47:08;;;;;;;8.90;6.10;;;11.40;87.70;;;;;;5110911;28;20203;-65
2021/10/07 06:49:37;;;;;;;8.20;4.60;;;11.40;87.70;;;;;;5094554;28;20280;-65
2021/10/07 06:52:05;;;;;;;3.90;2.40;;;11.40;86.60;;;;;;5093878;28;20213;-65
2021/10/07 06:54:33;;;;;;;5.82;3.20;;;11.40;86.70;;;;;;5105826;28;20196;-65
2021/10/07 06:57:00;;;;;;;2.75;1.80;;;11.40;87.00;;;;;;5110076;28;20191;-64
2021/10/07 06:59:28;;;;;;;3.03;2.40;;;11.50;86.40;;;;;;5101017;28;20191;-64
2021/10/07 07:01:55;;;;;;;2.35;1.67;;;11.50;86.50;;;;;;5099085;28;20221;-64
2021/10/07 07:04:27;;;;;;;3.28;2.42;;;11.60;86.60;;;;;;5094378;28;20367;-65
2021/10/07 07:06:54;;;;;;;3.10;2.00;;;11.70;87.00;;;;;;5094394;28;20228;-64
2021/10/07 07:09:21;;;;;;;2.80;1.50;;;11.70;86.20;;;;;;5094557;28;20189;-64
2021/10/07 07:11:50;;;;;;;2.35;1.52;;;11.70;85.70;;;;;;5094523;28;20284;-65
2021/10/07 07:14:17;;;;;;;2.50;1.40;;;11.80;85.00;;;;;;5094621;28;20533;-64
2021/10/07 07:16:45;;;;;;;2.35;1.45;;;11.80;84.70;;;;;;5094106;28;20735;-64
2021/10/07 07:19:14;;;;;;;2.00;1.05;;;11.90;84.40;;;;;;5094227;28;20215;-65
2021/10/07 07:21:41;;;;;;;2.13;1.40;;;11.90;83.30;;;;;;5093809;28;20733;-65
2021/10/07 07:24:08;;;;;;;4.15;1.20;;;11.90;82.90;;;;;;5094365;28;20232;-65
2021/10/07 07:26:37;;;;;;;3.08;1.23;;;11.90;83.00;;;;;;5094321;28;20279;-65
2021/10/07 07:29:06;;;;;;;2.00;1.20;;;12.00;83.30;;;;;;5094194;28;20275;-65
2021/10/07 07:31:33;;;;;;;3.72;1.30;;;12.00;83.20;;;;;;5094214;28;20226;-64
2021/10/07 07:34:01;;;;;;;3.05;1.52;;;12.00;83.60;;;;;;5093852;28;20280;-64
2021/10/07 07:36:28;;;;;;;3.38;1.60;;;12.00;83.90;;;;;;5094089;28;20195;-64
2021/10/07 07:38:56;;;;;;;3.55;1.70;;;12.10;84.10;;;;;;5094027;28;20216;-64
2021/10/07 07:41:23;;;;;;;2.30;1.50;;;12.20;84.00;;;;;;5094113;28;20224;-64
2021/10/07 07:43:50;;;;;;;3.35;1.40;;;12.10;82.60;;;;;;5094066;28;20269;-64
2021/10/07 07:46:20;;;;;;;2.53;1.50;;;12.20;83.30;;;;;;5093647;28;20617;-64
2021/10/07 07:48:48;;;;;;;2.28;1.70;;;12.20;83.70;;;;;;5093740;28;20443;-64
2021/10/07 07:51:15;;;;;;;2.55;1.50;;;12.20;82.80;;;;;;5093469;28;20307;-64
2021/10/07 07:53:42;;;;;;;3.40;1.63;;;12.20;82.60;;;;;;5093558;28;20224;-64
2021/10/07 07:56:10;;;;;;;3.33;1.67;;;12.30;83.10;;;;;;5093680;28;20443;-64
2021/10/07 07:58:37;;;;;;;7.10;1.17;;;12.30;82.50;;;;;;5093144;28;20443;-65
2021/10/07 08:01:03;;;;;;;2.33;1.33;;;12.30;82.70;;;;;;5093429;28;20892;-64
2021/10/07 08:03:33;;;;;;;2.33;1.63;;;12.40;82.60;;;;;;5093626;28;20848;-64
2021/10/07 08:06:00;;;;;;;3.42;2.17;;;12.40;82.00;;;;;;5093519;28;20204;-64
2021/10/07 08:08:27;;;;;;;4.23;2.40;;;12.50;81.70;;;;;;5093542;28;20197;-64
2021/10/07 08:10:54;;;;;;;4.27;2.40;;;12.50;81.70;;;;;;5093571;28;20442;-64
2021/10/07 08:13:21;;;;;;;3.15;2.00;;;12.60;82.00;;;;;;5093402;28;20454;-65
2021/10/07 08:15:50;;;;;;;5.97;2.13;;;12.70;81.60;;;;;;5092994;28;20279;-64
2021/10/07 08:18:17;;;;;;;3.27;1.60;;;12.90;81.20;;;;;;5093356;28;20475;-64
2021/10/07 08:20:45;;;;;;;4.50;1.92;;;12.90;80.60;;;;;;5093265;28;20557;-64
2021/10/07 08:23:13;;;;;;;5.77;2.13;;;13.00;80.20;;;;;;5093388;28;20239;-64
2021/10/07 08:25:40;;;;;;;3.45;1.75;;;13.10;79.70;;;;;;5093080;28;20466;-64
2021/10/07 08:28:08;;;;;;;3.00;1.90;;;13.20;79.80;;;;;;5093147;28;20362;-65
2021/10/07 08:30:35;;;;;;;6.93;2.30;;;13.30;79.30;;;;;;5093199;28;20478;-64
2021/10/07 08:33:02;;;;;;;5.50;2.50;;;13.40;78.40;;;;;;5093311;28;20850;-65
2021/10/07 08:35:29;;;;;;;3.60;2.47;;;13.50;78.30;;;;;;5093377;28;20650;-64
2021/10/07 08:38:01;;;;;;;3.80;1.87;;;13.50;77.00;;;;;;5092773;28;20522;-64
2021/10/07 08:40:28;;;;;;;4.10;2.03;;;13.60;77.30;;;;;;5093196;28;20474;-64
2021/10/07 08:42:56;;;;;;;2.80;1.87;;;13.60;77.80;;;;;;5092831;28;20453;-65
2021/10/07 08:45:23;;;;;;;3.30;1.83;;;13.70;76.70;;;;;;5092443;28;20439;-64
2021/10/07 08:47:52;;;;;;;2.60;1.83;;;13.80;75.60;;;;;;5092627;28;20517;-65
2021/10/07 08:50:26;;;;;;;3.53;1.80;;;13.80;74.20;;;;;;5093056;28;20439;-65
2021/10/07 08:52:53;;;;;;;3.17;1.90;;;13.90;74.20;;;;;;5092861;28;20478;-64
2021/10/07 08:55:21;;;;;;;5.73;2.37;;;14.00;74.50;;;;;;5092977;28;20534;-64
2021/10/07 08:57:48;;;;;;;3.77;1.73;;;14.20;74.30;;;;;;5092969;28;20996;-64
2021/10/07 09:00:17;;;;;;;5.10;2.00;;;14.30;73.00;;;;;;5092795;28;20522;-64
2021/10/07 09:02:45;;;;;;;4.20;1.67;;;14.30;72.50;;;;;;5092751;28;20566;-64
2021/10/07 09:05:13;;;;;;;3.60;2.20;;;14.40;71.60;;;;;;5092848;28;20918;-64
2021/10/07 09:08:01;;;;;;;2.93;1.60;;;14.40;70.40;;;;;;5092910;28;20526;-65
2021/10/07 09:10:43;;;;;;;5.20;1.90;;;14.40;70.80;;;;;;5095075;28;20431;-64
2021/10/07 09:13:12;;;;;;;2.50;1.70;;;14.40;71.90;;;;;;5096677;28;20439;-65
2021/10/07 09:15:44;;;;;;;2.93;2.13;;;14.40;72.10;;;;;;5096780;28;20439;-65
2021/10/07 09:18:11;;;;;;;4.10;2.10;;;14.50;72.60;;;;;;5096602;28;20526;-64
2021/10/07 09:20:43;;;;;;;3.87;2.17;;;14.50;72.50;;;;;;5096681;28;20531;-64
2021/10/07 09:23:12;;;;;;;3.20;2.07;;;14.60;72.40;;;;;;5096707;28;21009;-64
2021/10/07 09:26:12;;;;;;;4.80;2.27;;;14.50;71.70;;;;;;5096335;28;20522;-64
2021/10/07 09:28:51;;;;;;;6.87;2.40;;;14.50;71.90;;;;;;5033810;28;20563;-66
2021/10/07 09:31:26;;;;;;;3.00;2.20;;;14.50;70.70;;;;;;5088720;28;20496;-64
2021/10/07 09:33:55;;;;;;;3.03;1.90;;;14.40;72.30;;;;;;5096555;28;20453;-64
2021/10/07 09:36:23;;;;;;;3.03;2.10;;;14.50;72.00;;;;;;5096547;28;20514;-64
2021/10/07 09:38:56;;;;;;;3.20;1.93;;;14.50;72.30;;;;;;5096442;28;20534;-64
2021/10/07 09:41:26;;;;;;;5.00;2.50;;;14.60;73.90;;;;;;5096229;28;20479;-64
2021/10/07 09:43:55;;;;;;;3.30;2.90;;;14.80;74.30;;;;;;5095968;28;20498;-64
2021/10/07 09:46:43;;;;;;;3.60;2.27;;;14.90;73.20;;;;;;5096353;28;21378;-65
2021/10/07 09:49:11;;;;;;;6.33;2.73;;;14.90;72.30;;;;;;5092342;28;20991;-64
2021/10/07 09:51:40;;;;;;;3.93;2.43;;;14.90;71.70;;;;;;5094503;28;20465;-64
2021/10/07 09:54:08;;;;;;;2.80;1.80;;;14.90;70.80;;;;;;5094588;28;20490;-65
2021/10/07 09:56:37;;;;;;;2.60;1.80;;;14.90;70.00;;;;;;5092341;28;20526;-66
2021/10/07 09:59:08;;;;;;;3.00;1.73;;;14.90;69.60;;;;;;5093714;28;20522;-65
2021/10/07 10:01:39;;;;;;;3.93;2.30;;;14.90;69.50;;;;;;5093565;28;20574;-65
2021/10/07 10:04:09;;;;;;;4.43;2.80;;;14.80;69.60;;;;;;5093742;28;20435;-66
2021/10/07 10:06:36;;;;;;;4.70;2.30;;;14.70;70.00;;;;;;5094252;28;20439;-65
2021/10/07 10:09:03;;;;;;;5.53;2.00;;;14.70;69.90;;;;;;5094097;28;20477;-65
2021/10/07 10:11:30;;;;;;;2.50;1.90;;;14.60;69.70;;;;;;5093838;28;20525;-66
2021/10/07 10:13:59;;;;;;;4.20;1.90;;;14.50;69.40;;;;;;5093413;28;20445;-65
2021/10/07 10:16:26;;;;;;;3.20;1.67;;;14.40;70.20;;;;;;5091425;28;20840;-65
2021/10/07 10:18:59;;;;;;;3.13;1.30;;;14.30;71.50;;;;;;5093582;28;20521;-65
2021/10/07 10:21:28;;;;;;;3.90;2.27;;;14.20;72.00;;;;;;5092972;28;20478;-65
2021/10/07 10:23:56;;;;;;;3.10;2.03;;;14.10;73.40;;;;;;5093313;28;20481;-65
2021/10/07 10:26:23;;;;;;;2.60;1.90;;;14.10;73.40;;;;;;5093539;28;20794;-64
2021/10/07 10:28:52;;;;;;;4.40;2.27;;;14.00;74.00;;;;;;5093524;28;20517;-64
2021/10/07 10:31:32;;;;;;;4.27;1.90;;;14.00;75.00;;;;;;5093198;28;20870;-64
2021/10/07 10:34:08;;;;;;;4.10;2.40;;;13.90;76.60;;;;;;5093522;28;20857;-65
2021/10/07 10:36:39;;;;;;;3.13;2.10;;;13.80;76.20;;;;;;5093351;28;20426;-65
2021/10/07 10:39:14;;;;;;;4.60;2.57;;;13.80;76.10;;;;;;5093066;28;20478;-65
2021/10/07 10:41:50;;;;;;;2.87;1.70;;;13.80;76.90;;;;;;5092753;28;20574;-64
2021/10/07 10:44:40;;;;;;;3.00;2.00;;;13.80;77.20;;;;;;5092871;28;20500;-65
2021/10/07 10:47:20;;;;;;;7.43;2.93;;;13.70;77.70;;;;;;5093551;28;20447;-65
2021/10/07 10:50:10;;;;;;;4.00;2.00;;;13.60;78.50;;;;;;5093678;28;20435;-66
2021/10/07 10:52:43;;;;;;;4.20;2.33;;;13.50;80.30;;;;;;5093548;28;20463;-65
2021/10/07 10:55:13;;;;;;;3.30;2.40;;;13.50;80.40;;;;;;5093586;28;20975;-65
2021/10/07 10:57:42;;;;;;;5.72;1.83;;;13.40;81.00;;;;;;5093195;28;20542;-66
2021/10/07 11:00:21;;;;;;;4.03;2.23;;;13.50;81.40;;;;;;5093588;28;20718;-65
2021/10/07 11:02:53;;;;;;;4.70;2.03;;;13.50;80.60;;;;;;5093328;28;20479;-65
2021/10/07 11:05:23;;;;;;;2.40;1.50;;;13.60;80.50;;;;;;5093426;28;20439;-66
2021/10/07 11:08:14;;;;;;;2.33;1.33;;;13.70;79.60;;;;;;5103256;28;20518;-65
2021/10/07 11:10:43;;;;;;;3.47;1.83;;;13.70;77.60;;;;;;5113625;28;20928;-64
2021/10/07 11:13:14;;;;;;;5.33;2.13;;;13.80;78.60;;;;;;5102940;28;20514;-65
2021/10/07 11:15:43;;;;;;;3.27;2.10;;;13.80;79.20;;;;;;5093141;28;20439;-66
2021/10/07 11:18:11;;;;;;;2.47;1.20;;;13.90;78.80;;;;;;5111473;28;20434;-65
2021/10/07 11:20:38;;;;;;;2.60;1.30;;;13.90;78.10;;;;;;5113487;28;20469;-65
2021/10/07 11:23:16;;;;;;;6.23;1.60;;;13.90;78.30;;;;;;5104198;28;20506;-66
2021/10/07 11:25:47;;;;;;;3.53;1.70;;;13.90;79.10;;;;;;5109488;28;20480;-65
2021/10/07 11:28:15;;;;;;;5.40;1.53;;;13.90;78.50;;;;;;5094415;28;20526;-64
2021/10/07 11:30:44;;;;;;;2.00;1.10;;;13.90;78.90;;;;;;5092538;28;20527;-65
2021/10/07 11:33:13;;;;;;;4.43;2.03;;;13.90;77.30;;;;;;5101919;28;21034;-65
2021/10/07 11:35:43;;;;;;;5.30;1.70;;;14.00;78.00;;;;;;5112773;28;20525;-65
2021/10/07 11:38:13;;;;;;;3.13;1.40;;;14.00;77.10;;;;;;5110689;28;20547;-66
2021/10/07 11:40:47;;;;;;;2.77;1.50;;;14.00;76.20;;;;;;5112458;28;20917;-65
2021/10/07 11:43:16;;;;;;;5.63;1.60;;;14.00;76.50;;;;;;5100154;28;20479;-65
2021/10/07 11:45:45;;;;;;;3.50;1.50;;;14.10;76.80;;;;;;5105117;28;20522;-65
2021/10/07 11:48:14;;;;;;;2.63;2.00;;;14.20;76.60;;;;;;5112656;28;20513;-64
2021/10/07 11:50:45;;;;;;;3.07;1.77;;;14.20;74.90;;;;;;5112311;28;20444;-66
2021/10/07 11:53:13;;;;;;;3.43;1.80;;;14.30;74.10;;;;;;5112385;28;20525;-64
2021/10/07 11:55:43;;;;;;;3.17;1.20;;;14.40;72.30;;;;;;5113423;28;20431;-65
2021/10/07 11:58:10;;;;;;;3.53;1.67;;;14.40;71.40;;;;;;5112786;28;20468;-65
2021/10/07 12:00:41;;;;;;;2.10;1.40;;;14.40;73.30;;;;;;5112741;28;20521;-66
2021/10/07 12:03:10;;;;;;;3.87;1.70;;;14.50;74.10;;;;;;5112745;28;20485;-65
2021/10/07 12:05:41;;;;;;;2.60;1.33;;;14.60;74.50;;;;;;5112168;28;20426;-66
2021/10/07 12:08:11;;;;;;;2.80;1.60;;;14.60;73.70;;;;;;5112445;28;20551;-65
2021/10/07 12:10:40;;;;;;;2.17;1.47;;;14.70;73.70;;;;;;5112624;28;20467;-65
2021/10/07 12:13:09;;;;;;;2.97;2.00;;;14.80;72.50;;;;;;5112606;28;20526;-65
2021/10/07 12:15:38;;;;;;;3.30;2.07;;;14.80;73.90;;;;;;5112585;28;20521;-65
2021/10/07 12:18:06;;;;;;;8.10;2.00;;;14.90;73.40;;;;;;5112320;28;20433;-65
2021/10/07 12:20:41;;;;;;;2.80;1.57;;;14.90;72.20;;;;;;5112371;28;20774;-66
2021/10/07 12:23:08;;;;;;;5.60;2.43;;;14.90;72.80;;;;;;5112069;28;20484;-65
2021/10/07 12:25:44;;;;;;;4.47;3.33;;;15.00;72.70;;;;;;5112043;28;20947;-64
2021/10/07 12:28:18;;;;;;;4.47;1.83;;;15.00;72.70;;;;;;5112145;28;20441;-66
2021/10/07 12:30:53;;;;;;;2.93;2.23;;;15.00;70.70;;;;;;5112206;28;20465;-65
2021/10/07 12:33:26;;;;;;;4.10;2.17;;;14.90;71.00;;;;;;5112099;28;20525;-66
2021/10/07 12:36:01;;;;;;;3.73;2.07;;;14.70;71.20;;;;;;5112315;28;20534;-64
2021/10/07 12:38:29;;;;;;;2.77;1.50;;;14.70;71.50;;;;;;5112434;28;20517;-65
2021/10/07 12:40:59;;;;;;;5.53;1.47;;;14.60;71.60;;;;;;5112144;28;20807;-64
2021/10/07 12:43:27;;;;;;;3.20;1.67;;;14.40;70.50;;;;;;5113315;28;20484;-64
2021/10/07 12:46:02;;;;;;;3.07;1.87;;;14.30;69.40;;;;;;5119067;28;20538;-65
2021/10/07 12:48:45;;;;;;;2.23;1.37;;;14.20;70.70;;;;;;5118911;28;20985;-65
2021/10/07 12:51:14;;;;;;;2.30;1.60;;;14.10;72.30;;;;;;5118889;28;20465;-65
2021/10/07 12:53:42;;;;;;;3.27;1.77;;;14.00;71.20;;;;;;5118481;28;20442;-64
2021/10/07 12:56:14;;;;;;;2.50;1.37;;;13.90;71.60;;;;;;5118822;28;20804;-65
2021/10/07 12:58:48;;;;;;;2.10;1.53;;;13.90;73.30;;;;;;5119045;28;20438;-65
2021/10/07 13:01:16;;;;;;;2.10;1.40;;;13.80;74.40;;;;;;5118666;28;20920;-65